Time;durP1;ratioP1;P1;durP2;ratioP2;P2;SDS_P1;SDS_P2;PMS_P1;PMS_P2;Temp;Humidity;BMP_temperature;BMP_pressure;BME280_temperature;BME280_humidity;BME280_pressure;Samples;Min_cycle;Max_cycle;Signal;HPM_P1;HPM_P2
2023/09/26 00:01:33;;;;;;;4.95;4.00;;;;;;;;;;5065473;28;20037;-42
2023/09/26 00:04:00;;;;;;;8.52;3.00;;;;;;;;;;5066241;28;20021;-41
2023/09/26 00:06:28;;;;;;;7.13;3.28;;;;;;;;;;5066293;28;20032;-39
2023/09/26 00:08:55;;;;;;;3.95;2.88;;;;;;;;;;5066171;28;20040;-41
2023/09/26 00:11:22;;;;;;;5.43;2.70;;;;;;;;;;5065674;28;20047;-43
2023/09/26 00:13:48;;;;;;;10.07;3.10;;;;;;;;;;5065793;28;20088;-40
2023/09/26 00:16:15;;;;;;;6.65;2.80;;;;;;;;;;5065843;28;20033;-40
2023/09/26 00:18:42;;;;;;;6.45;2.70;;;;;;;;;;5066002;28;20056;-43
2023/09/26 00:21:12;;;;;;;4.63;2.30;;;;;;;;;;5065989;28;20032;-41
2023/09/26 00:23:39;;;;;;;5.22;2.45;;;;;;;;;;5065714;28;20033;-40
2023/09/26 00:26:07;;;;;;;2.58;2.38;;;;;;;;;;5065594;28;20104;-40
2023/09/26 00:28:34;;;;;;;6.63;2.20;;;;;;;;;;5065505;28;20313;-43
2023/09/26 00:31:04;;;;;;;17.02;15.30;;;;;;;;;;5065502;28;20037;-40
2023/09/26 00:33:34;;;;;;;17.83;15.93;;;;;;;;;;5080396;28;20050;-40
2023/09/26 00:36:08;;;;;;;12.13;10.82;;;;;;;;;;5085817;28;20032;-40
2023/09/26 00:38:35;;;;;;;9.45;8.45;;;;;;;;;;5085511;28;20091;-40
2023/09/26 00:41:04;;;;;;;13.00;6.53;;;;;;;;;;5085537;28;20063;-45
2023/09/26 00:43:31;;;;;;;10.52;4.95;;;;;;;;;;5085441;28;20031;-44
2023/09/26 00:46:04;;;;;;;5.82;4.75;;;;;;;;;;5085645;28;20024;-43
2023/09/26 00:48:31;;;;;;;8.32;5.25;;;;;;;;;;5085211;28;20078;-41
2023/09/26 00:50:58;;;;;;;11.63;8.00;;;;;;;;;;5085454;28;20033;-40
2023/09/26 00:53:26;;;;;;;14.07;11.05;;;;;;;;;;5085221;28;20021;-42
2023/09/26 00:55:56;;;;;;;18.80;16.90;;;;;;;;;;5083510;28;20029;-45
2023/09/26 00:58:23;;;;;;;11.63;10.23;;;;;;;;;;5083416;28;20040;-39
2023/09/26 01:00:53;;;;;;;9.48;7.60;;;;;;;;;;5083401;28;20114;-40
2023/09/26 01:03:21;;;;;;;7.25;5.90;;;;;;;;;;5083141;28;20059;-40
2023/09/26 01:05:48;;;;;;;7.63;4.90;;;;;;;;;;5083321;28;20041;-41
2023/09/26 01:08:16;;;;;;;7.07;4.32;;;;;;;;;;5083460;28;20021;-41
2023/09/26 01:10:45;;;;;;;5.07;3.80;;;;;;;;;;5084589;28;20029;-43
2023/09/26 01:13:12;;;;;;;6.18;3.85;;;;;;;;;;5084877;28;20079;-44
2023/09/26 01:15:39;;;;;;;4.35;3.17;;;;;;;;;;5085031;28;20025;-38
2023/09/26 01:18:08;;;;;;;6.38;4.32;;;;;;;;;;5084630;28;20028;-41
2023/09/26 01:20:35;;;;;;;5.50;3.60;;;;;;;;;;5084861;28;20092;-40
2023/09/26 01:23:08;;;;;;;4.50;2.88;;;;;;;;;;5084695;28;20025;-41
2023/09/26 01:25:35;;;;;;;23.10;20.80;;;;;;;;;;5084290;28;20040;-40
2023/09/26 01:28:07;;;;;;;31.80;28.67;;;;;;;;;;5084508;28;20058;-39
2023/09/26 01:30:34;;;;;;;25.92;23.25;;;;;;;;;;5084555;28;20012;-40
2023/09/26 01:33:03;;;;;;;14.48;12.95;;;;;;;;;;5084459;28;20020;-40
2023/09/26 01:35:29;;;;;;;15.45;13.70;;;;;;;;;;5083822;28;20094;-43
2023/09/26 01:37:56;;;;;;;24.70;15.02;;;;;;;;;;5084271;28;20299;-40
2023/09/26 01:40:24;;;;;;;9.10;8.20;;;;;;;;;;5084622;28;20204;-44
2023/09/26 01:42:51;;;;;;;8.13;7.03;;;;;;;;;;5077310;28;20030;-49
2023/09/26 01:45:18;;;;;;;21.88;19.60;;;;;;;;;;5056142;28;20036;-47
2023/09/26 01:47:45;;;;;;;33.75;30.00;;;;;;;;;;5050150;28;20079;-45
2023/09/26 01:50:12;;;;;;;21.00;18.73;;;;;;;;;;5053681;28;20049;-39
2023/09/26 01:52:38;;;;;;;15.68;14.05;;;;;;;;;;5052705;28;20017;-39
2023/09/26 01:55:06;;;;;;;12.02;9.18;;;;;;;;;;5044163;28;20049;-39
2023/09/26 01:57:33;;;;;;;12.80;7.60;;;;;;;;;;5046867;28;20245;-39
2023/09/26 02:00:01;;;;;;;9.45;7.20;;;;;;;;;;5052716;28;20069;-41
2023/09/26 02:02:29;;;;;;;8.43;6.45;;;;;;;;;;5043967;28;20032;-48
2023/09/26 02:04:55;;;;;;;26.90;23.27;;;;;;;;;;5044491;28;20229;-48
2023/09/26 02:07:22;;;;;;;54.72;49.10;;;;;;;;;;5054724;28;20017;-49
2023/09/26 02:09:50;;;;;;;24.77;20.20;;;;;;;;;;5055086;28;20021;-46
2023/09/26 02:12:17;;;;;;;9.77;8.50;;;;;;;;;;5052674;28;20025;-44
2023/09/26 02:14:43;;;;;;;20.75;12.32;;;;;;;;;;5043785;28;20229;-38
2023/09/26 02:17:10;;;;;;;15.65;12.40;;;;;;;;;;5056856;28;20036;-42
2023/09/26 02:19:39;;;;;;;13.13;9.95;;;;;;;;;;5059022;28;20324;-40
2023/09/26 02:22:05;;;;;;;11.32;7.05;;;;;;;;;;5063743;28;20032;-43
2023/09/26 02:24:32;;;;;;;7.93;5.45;;;;;;;;;;5063671;28;20384;-45
2023/09/26 02:26:59;;;;;;;9.73;5.40;;;;;;;;;;5063463;28;20060;-46
2023/09/26 02:29:28;;;;;;;32.97;21.92;;;;;;;;;;5063161;28;20344;-50
2023/09/26 02:31:54;;;;;;;52.60;13.52;;;;;;;;;;5063321;28;20029;-49
2023/09/26 02:34:22;;;;;;;24.23;13.07;;;;;;;;;;5057837;28;20378;-40
2023/09/26 02:36:49;;;;;;;9.20;5.68;;;;;;;;;;5060195;28;20025;-39
2023/09/26 02:39:17;;;;;;;8.52;4.20;;;;;;;;;;5063402;28;20036;-42
2023/09/26 02:41:43;;;;;;;9.02;4.20;;;;;;;;;;5064488;28;20168;-45
2023/09/26 02:44:11;;;;;;;7.47;4.68;;;;;;;;;;5065688;28;20095;-45
2023/09/26 02:46:38;;;;;;;6.00;4.28;;;;;;;;;;5083389;28;20085;-48
2023/09/26 02:49:04;;;;;;;6.72;3.45;;;;;;;;;;5087687;28;20039;-43
2023/09/26 02:51:31;;;;;;;51.38;46.90;;;;;;;;;;5083841;28;20028;-46
2023/09/26 02:53:58;;;;;;;24.02;21.73;;;;;;;;;;5067585;28;20029;-46
2023/09/26 02:56:24;;;;;;;9.77;8.77;;;;;;;;;;5067457;28;20045;-47
2023/09/26 02:58:51;;;;;;;11.73;7.10;;;;;;;;;;5066755;28;20084;-45
2023/09/26 03:01:18;;;;;;;9.93;6.93;;;;;;;;;;5069743;28;20072;-42
2023/09/26 03:03:45;;;;;;;5.50;4.82;;;;;;;;;;5086376;28;20036;-47
2023/09/26 03:06:12;;;;;;;7.07;4.00;;;;;;;;;;5087159;28;20044;-46
2023/09/26 03:08:38;;;;;;;7.38;3.80;;;;;;;;;;5074883;28;20268;-53
2023/09/26 03:11:05;;;;;;;6.28;3.30;;;;;;;;;;5060703;28;20068;-46
2023/09/26 03:13:35;;;;;;;6.43;3.22;;;;;;;;;;5066822;28;20013;-49
2023/09/26 03:16:02;;;;;;;6.80;2.72;;;;;;;;;;5057360;28;20087;-46
2023/09/26 03:18:28;;;;;;;29.77;26.85;;;;;;;;;;5058346;28;20280;-44
2023/09/26 03:20:56;;;;;;;4.50;3.88;;;;;;;;;;5052034;28;20109;-44
2023/09/26 03:23:24;;;;;;;21.40;19.33;;;;;;;;;;5055511;28;20105;-43
2023/09/26 03:25:50;;;;;;;14.20;9.30;;;;;;;;;;5068146;28;20041;-51
2023/09/26 03:28:17;;;;;;;5.03;3.90;;;;;;;;;;5060112;28;20033;-43
2023/09/26 03:30:44;;;;;;;7.35;5.95;;;;;;;;;;5055587;28;20030;-44
2023/09/26 03:33:11;;;;;;;10.95;6.20;;;;;;;;;;5055089;28;20241;-55
2023/09/26 03:35:38;;;;;;;7.70;5.10;;;;;;;;;;5060127;28;20029;-50
2023/09/26 03:38:04;;;;;;;5.28;4.25;;;;;;;;;;5054121;28;20033;-44
2023/09/26 03:40:31;;;;;;;10.00;3.70;;;;;;;;;;5057823;28;20076;-42
2023/09/26 03:42:58;;;;;;;6.30;3.20;;;;;;;;;;5076746;28;20028;-42
2023/09/26 03:45:27;;;;;;;3.72;3.10;;;;;;;;;;5079744;28;20055;-52
2023/09/26 03:47:54;;;;;;;6.55;2.97;;;;;;;;;;5086622;28;20343;-44
2023/09/26 03:50:21;;;;;;;4.32;2.75;;;;;;;;;;5079462;28;20017;-50
2023/09/26 03:52:47;;;;;;;5.97;2.60;;;;;;;;;;5066119;28;20088;-44
2023/09/26 03:55:14;;;;;;;2.58;2.38;;;;;;;;;;5066585;28;20041;-47
2023/09/26 03:57:41;;;;;;;3.88;2.25;;;;;;;;;;5066121;28;20240;-52
2023/09/26 04:00:13;;;;;;;5.50;2.17;;;;;;;;;;5066213;28;20096;-47
2023/09/26 04:02:39;;;;;;;4.55;2.30;;;;;;;;;;5066218;28;20028;-44
2023/09/26 04:05:06;;;;;;;4.13;2.00;;;;;;;;;;5066196;28;20024;-44
2023/09/26 04:07:33;;;;;;;3.53;1.90;;;;;;;;;;5083954;28;20024;-43
2023/09/26 04:09:59;;;;;;;4.88;1.88;;;;;;;;;;5086294;28;20040;-42
2023/09/26 04:12:26;;;;;;;4.65;1.80;;;;;;;;;;5059182;28;20040;-52
2023/09/26 04:14:53;;;;;;;2.70;1.77;;;;;;;;;;5064190;28;20036;-44
2023/09/26 04:17:20;;;;;;;7.18;2.08;;;;;;;;;;5065946;28;20024;-43
2023/09/26 04:19:47;;;;;;;2.17;1.58;;;;;;;;;;5065941;28;20313;-47
2023/09/26 04:22:14;;;;;;;3.42;1.83;;;;;;;;;;5065775;28;20029;-43
2023/09/26 04:24:40;;;;;;;1.70;1.60;;;;;;;;;;5065789;28;20032;-43
2023/09/26 04:27:07;;;;;;;2.20;1.70;;;;;;;;;;5065624;28;20064;-53
2023/09/26 04:29:36;;;;;;;4.03;1.70;;;;;;;;;;5065544;28;20071;-47
2023/09/26 04:32:03;;;;;;;4.45;2.00;;;;;;;;;;5066139;28;20040;-49
2023/09/26 04:34:32;;;;;;;5.38;2.10;;;;;;;;;;5081014;28;20205;-44
2023/09/26 04:36:58;;;;;;;2.88;1.70;;;;;;;;;;5085905;28;20036;-54
2023/09/26 04:39:25;;;;;;;6.63;1.65;;;;;;;;;;5085646;28;20336;-48
2023/09/26 04:41:52;;;;;;;5.43;1.90;;;;;;;;;;5077225;28;20309;-46
2023/09/26 04:44:19;;;;;;;4.05;1.25;;;;;;;;;;5056085;28;20044;-52
2023/09/26 04:46:45;;;;;;;2.65;1.70;;;;;;;;;;5072994;28;20071;-49
2023/09/26 04:49:12;;;;;;;3.85;1.95;;;;;;;;;;5085374;28;20062;-47
2023/09/26 04:51:39;;;;;;;3.67;1.60;;;;;;;;;;5079746;28;20090;-48
2023/09/26 04:54:05;;;;;;;3.53;1.60;;;;;;;;;;5085180;28;20217;-50
2023/09/26 04:56:32;;;;;;;6.68;1.73;;;;;;;;;;5085608;28;20091;-53
2023/09/26 04:58:58;;;;;;;2.00;1.40;;;;;;;;;;5085096;28;20028;-48
2023/09/26 05:01:26;;;;;;;5.53;1.80;;;;;;;;;;5082835;28;20103;-54
2023/09/26 05:03:53;;;;;;;4.82;1.80;;;;;;;;;;5063941;28;20078;-54
2023/09/26 05:06:19;;;;;;;3.55;1.55;;;;;;;;;;5065224;28;20059;-46
2023/09/26 05:08:46;;;;;;;6.03;1.50;;;;;;;;;;5082335;28;20036;-52
2023/09/26 05:11:15;;;;;;;6.88;1.58;;;;;;;;;;5084485;28;20020;-51
2023/09/26 05:13:43;;;;;;;5.15;1.40;;;;;;;;;;5084794;28;20025;-44
2023/09/26 05:16:10;;;;;;;3.17;1.58;;;;;;;;;;5084867;28;20055;-50
2023/09/26 05:18:37;;;;;;;4.07;1.70;;;;;;;;;;5084783;28;20091;-48
2023/09/26 05:21:07;;;;;;;3.30;1.80;;;;;;;;;;5084900;28;20039;-46
2023/09/26 05:23:34;;;;;;;3.63;1.63;;;;;;;;;;5084652;28;20024;-47
2023/09/26 05:26:05;;;;;;;5.35;1.90;;;;;;;;;;5084669;28;20043;-45
2023/09/26 05:28:32;;;;;;;2.88;1.60;;;;;;;;;;5084812;28;20032;-46
2023/09/26 05:30:59;;;;;;;6.03;1.60;;;;;;;;;;5084860;28;20032;-49
2023/09/26 05:33:25;;;;;;;3.35;1.63;;;;;;;;;;5066444;28;20084;-45
2023/09/26 05:35:55;;;;;;;4.03;1.50;;;;;;;;;;5064585;28;20037;-52
2023/09/26 05:38:22;;;;;;;2.53;1.58;;;;;;;;;;5064403;28;20053;-46
2023/09/26 05:40:49;;;;;;;5.97;1.80;;;;;;;;;;5064850;28;20028;-49
2023/09/26 05:43:15;;;;;;;7.97;1.58;;;;;;;;;;5064220;28;20029;-53
2023/09/26 05:45:42;;;;;;;2.33;1.30;;;;;;;;;;5063965;28;20041;-49
2023/09/26 05:48:09;;;;;;;4.13;1.50;;;;;;;;;;5064308;28;20209;-49
2023/09/26 05:50:35;;;;;;;3.00;1.30;;;;;;;;;;5064261;28;20051;-50
2023/09/26 05:53:03;;;;;;;5.68;1.50;;;;;;;;;;5064273;28;20040;-46
2023/09/26 05:55:29;;;;;;;3.40;1.45;;;;;;;;;;5064481;28;20028;-46
2023/09/26 05:57:56;;;;;;;2.85;1.60;;;;;;;;;;5064078;28;20028;-51
2023/09/26 06:00:23;;;;;;;2.35;1.45;;;;;;;;;;5064050;28;20033;-45
2023/09/26 06:02:49;;;;;;;4.70;1.65;;;;;;;;;;5064127;28;20190;-45
2023/09/26 06:05:16;;;;;;;4.43;1.60;;;;;;;;;;5063951;28;20121;-53
2023/09/26 06:07:43;;;;;;;4.82;1.65;;;;;;;;;;5064015;28;20048;-48
2023/09/26 06:10:11;;;;;;;4.30;1.63;;;;;;;;;;5064202;28;20057;-49
2023/09/26 06:12:38;;;;;;;3.72;1.30;;;;;;;;;;5064061;28;20354;-48
2023/09/26 06:15:06;;;;;;;3.13;1.50;;;;;;;;;;5064027;28;20037;-49
2023/09/26 06:17:33;;;;;;;3.00;1.38;;;;;;;;;;5063847;28;20017;-47
2023/09/26 06:19:59;;;;;;;4.20;1.73;;;;;;;;;;5063764;28;20036;-47
2023/09/26 06:22:26;;;;;;;3.25;1.50;;;;;;;;;;5063709;28;20037;-48
2023/09/26 06:24:53;;;;;;;3.78;1.42;;;;;;;;;;5063654;28;20076;-47
2023/09/26 06:27:19;;;;;;;3.50;1.70;;;;;;;;;;5063577;28;20036;-46
2023/09/26 06:29:46;;;;;;;5.38;1.50;;;;;;;;;;5063743;28;20084;-50
2023/09/26 06:32:13;;;;;;;4.45;1.60;;;;;;;;;;5063803;28;20048;-49
2023/09/26 06:34:40;;;;;;;6.95;1.92;;;;;;;;;;5063565;28;20313;-49
2023/09/26 06:37:07;;;;;;;5.38;1.63;;;;;;;;;;5063672;28;20033;-46
2023/09/26 06:39:33;;;;;;;3.08;1.38;;;;;;;;;;5063665;28;20021;-46
2023/09/26 06:42:00;;;;;;;2.35;1.50;;;;;;;;;;5064041;28;20032;-46
2023/09/26 06:44:28;;;;;;;2.97;1.45;;;;;;;;;;5063642;28;20044;-45
2023/09/26 06:46:55;;;;;;;13.25;2.15;;;;;;;;;;5063429;28;20057;-45
2023/09/26 06:49:22;;;;;;;5.72;1.80;;;;;;;;;;5063119;28;20100;-55
2023/09/26 06:51:48;;;;;;;4.97;1.75;;;;;;;;;;5063954;28;20040;-45
2023/09/26 06:54:15;;;;;;;11.20;1.98;;;;;;;;;;5063492;28;20122;-50
2023/09/26 06:56:42;;;;;;;4.03;1.60;;;;;;;;;;5063832;28;20028;-50
2023/09/26 06:59:08;;;;;;;3.05;1.50;;;;;;;;;;5063469;28;20086;-48
2023/09/26 07:01:35;;;;;;;3.40;1.30;;;;;;;;;;5063851;28;20067;-47
2023/09/26 07:04:02;;;;;;;5.55;1.80;;;;;;;;;;5063494;28;20052;-46
2023/09/26 07:06:30;;;;;;;2.08;1.58;;;;;;;;;;5063621;28;20194;-47
2023/09/26 07:08:58;;;;;;;4.57;1.70;;;;;;;;;;5063410;28;20021;-51
2023/09/26 07:11:25;;;;;;;8.95;2.05;;;;;;;;;;5063674;28;20032;-45
2023/09/26 07:13:52;;;;;;;3.40;1.35;;;;;;;;;;5063329;28;20049;-50
2023/09/26 07:16:18;;;;;;;4.63;1.60;;;;;;;;;;5063658;28;20028;-47
2023/09/26 07:18:45;;;;;;;3.55;1.33;;;;;;;;;;5063283;28;20035;-47
2023/09/26 07:21:12;;;;;;;2.63;1.50;;;;;;;;;;5063487;28;20049;-50
2023/09/26 07:23:38;;;;;;;2.90;1.35;;;;;;;;;;5063299;28;20076;-48
2023/09/26 07:26:12;;;;;;;4.93;1.70;;;;;;;;;;5063076;28;20207;-45
2023/09/26 07:28:39;;;;;;;7.43;1.80;;;;;;;;;;5063179;28;20079;-45
2023/09/26 07:31:06;;;;;;;2.58;1.40;;;;;;;;;;5063461;28;20088;-45
2023/09/26 07:33:33;;;;;;;4.65;1.60;;;;;;;;;;5064543;28;20033;-45
2023/09/26 07:36:00;;;;;;;2.00;1.45;;;;;;;;;;5067014;28;20339;-47
2023/09/26 07:38:26;;;;;;;3.92;1.60;;;;;;;;;;5056615;28;20063;-51
2023/09/26 07:40:53;;;;;;;6.80;1.60;;;;;;;;;;5056979;28;20065;-45
2023/09/26 07:43:20;;;;;;;6.95;1.70;;;;;;;;;;5046600;28;20013;-50
2023/09/26 07:45:47;;;;;;;6.78;1.80;;;;;;;;;;5047006;28;20029;-50
2023/09/26 07:48:13;;;;;;;3.05;1.60;;;;;;;;;;5046598;28;20030;-46
2023/09/26 07:50:40;;;;;;;3.25;1.50;;;;;;;;;;5046229;28;20258;-45
2023/09/26 07:53:09;;;;;;;4.55;1.42;;;;;;;;;;5046509;28;20036;-44
2023/09/26 07:55:36;;;;;;;5.50;1.55;;;;;;;;;;5046589;28;20029;-46
2023/09/26 07:58:02;;;;;;;4.07;1.35;;;;;;;;;;5046315;28;20017;-47
2023/09/26 08:00:29;;;;;;;4.30;1.30;;;;;;;;;;5046483;28;20025;-50
2023/09/26 08:22:52;;;;;;;5.93;1.70;;;;;;;;;;5046054;28;20340;-48
2023/09/26 08:25:19;;;;;;;4.43;1.50;;;;;;;;;;5045611;28;20041;-44
2023/09/26 08:27:46;;;;;;;5.53;1.55;;;;;;;;;;5045988;28;20029;-45
2023/09/26 08:30:13;;;;;;;3.90;1.38;;;;;;;;;;5045821;28;20037;-47
2023/09/26 08:33:04;;;;;;;5.47;1.35;;;;;;;;;;5045708;28;20032;-45
2023/09/26 08:35:34;;;;;;;3.00;1.40;;;;;;;;;;5045884;28;20325;-46
2023/09/26 08:38:01;;;;;;;2.92;1.50;;;;;;;;;;5070381;28;20029;-47
2023/09/26 08:40:28;;;;;;;3.10;1.63;;;;;;;;;;5065962;28;20036;-44
2023/09/26 08:42:58;;;;;;;4.18;1.60;;;;;;;;;;5065261;28;20376;-49
2023/09/26 08:45:28;;;;;;;10.18;2.08;;;;;;;;;;5065418;28;20044;-47
2023/09/26 08:47:54;;;;;;;6.70;1.80;;;;;;;;;;5054208;28;20010;-56
2023/09/26 08:50:22;;;;;;;4.18;1.50;;;;;;;;;;5063307;28;20092;-48
2023/09/26 08:52:49;;;;;;;2.83;1.48;;;;;;;;;;5064952;28;20068;-52
2023/09/26 08:55:16;;;;;;;5.95;1.60;;;;;;;;;;5070327;28;20029;-51
2023/09/26 08:57:43;;;;;;;4.28;1.48;;;;;;;;;;5065219;28;20060;-48
2023/09/26 09:00:12;;;;;;;6.13;1.42;;;;;;;;;;5065137;28;20055;-53
2023/09/26 09:02:39;;;;;;;5.25;1.50;;;;;;;;;;5065154;28;20016;-54
2023/09/26 09:05:07;;;;;;;6.63;1.60;;;;;;;;;;5064877;28;20048;-49
2023/09/26 09:07:34;;;;;;;4.05;1.45;;;;;;;;;;5065039;28;20025;-49
2023/09/26 09:10:11;;;;;;;4.85;1.50;;;;;;;;;;5065144;28;20021;-50
2023/09/26 09:12:38;;;;;;;3.53;1.20;;;;;;;;;;5064860;28;20025;-52
2023/09/26 09:15:18;;;;;;;7.07;1.48;;;;;;;;;;5082786;28;20035;-49
2023/09/26 09:17:49;;;;;;;5.50;1.38;;;;;;;;;;5084737;28;20029;-52
2023/09/26 09:20:27;;;;;;;7.72;1.60;;;;;;;;;;5084977;28;20091;-49
2023/09/26 09:23:01;;;;;;;5.45;1.50;;;;;;;;;;5084858;28;20032;-46
2023/09/26 09:25:32;;;;;;;4.45;1.50;;;;;;;;;;5084435;28;20061;-52
2023/09/26 09:28:02;;;;;;;3.67;1.67;;;;;;;;;;5084906;28;20024;-48
2023/09/26 09:30:29;;;;;;;8.63;1.85;;;;;;;;;;5084618;28;20016;-51
2023/09/26 09:32:57;;;;;;;5.38;1.73;;;;;;;;;;5084813;28;20025;-52
2023/09/26 09:35:23;;;;;;;6.97;1.75;;;;;;;;;;5084699;28;20056;-47
2023/09/26 09:37:51;;;;;;;5.65;1.60;;;;;;;;;;5070308;28;20043;-51
2023/09/26 09:40:19;;;;;;;5.25;1.65;;;;;;;;;;5064489;28;20033;-52
2023/09/26 09:42:49;;;;;;;5.05;1.70;;;;;;;;;;5064465;28;20059;-50
2023/09/26 09:45:16;;;;;;;3.72;1.38;;;;;;;;;;5064440;28;20025;-48
2023/09/26 09:47:45;;;;;;;4.75;1.60;;;;;;;;;;5057952;28;20029;-46
2023/09/26 09:50:13;;;;;;;5.18;1.50;;;;;;;;;;5049989;28;20025;-46
2023/09/26 09:52:43;;;;;;;4.47;1.70;;;;;;;;;;5044055;28;20028;-49
2023/09/26 09:55:13;;;;;;;8.02;1.52;;;;;;;;;;5043909;28;20045;-48
2023/09/26 09:57:46;;;;;;;7.53;2.00;;;;;;;;;;5043814;28;20234;-49
2023/09/26 10:00:13;;;;;;;;;;;;;;;;;;5044583;28;20040;-50
2023/09/26 10:02:40;;;;;;;4.20;1.70;;;;;;;;;;5044059;28;20247;-50
2023/09/26 10:05:12;;;;;;;6.47;2.00;;;;;;;;;;5044057;28;20075;-51
2023/09/26 10:07:45;;;;;;;3.22;1.60;;;;;;;;;;5052388;28;20072;-54
2023/09/26 10:10:13;;;;;;;4.18;1.80;;;;;;;;;;5064039;28;20027;-53
2023/09/26 10:12:41;;;;;;;6.00;1.60;;;;;;;;;;5063804;28;20031;-50
2023/09/26 10:15:11;;;;;;;5.45;1.90;;;;;;;;;;5064067;28;20059;-50
2023/09/26 10:17:41;;;;;;;5.93;1.80;;;;;;;;;;5064145;28;20021;-42
2023/09/26 10:20:12;;;;;;;9.30;1.75;;;;;;;;;;5063813;28;20032;-45
2023/09/26 10:22:41;;;;;;;5.80;1.77;;;;;;;;;;5063880;28;20053;-50
2023/09/26 10:25:10;;;;;;;5.88;1.73;;;;;;;;;;5063521;28;20040;-46
2023/09/26 10:27:39;;;;;;;7.95;2.08;;;;;;;;;;5063690;28;20025;-52
2023/09/26 10:30:10;;;;;;;6.70;2.22;;;;;;;;;;5062980;28;20272;-46
2023/09/26 10:32:41;;;;;;;6.68;2.38;;;;;;;;;;5063772;28;20029;-50
2023/09/26 10:35:14;;;;;;;11.93;2.90;;;;;;;;;;5055415;28;20033;-48
2023/09/26 10:37:49;;;;;;;5.68;3.00;;;;;;;;;;5058058;28;20225;-53
2023/09/26 10:40:17;;;;;;;8.68;2.50;;;;;;;;;;5056256;28;20302;-51
2023/09/26 10:42:44;;;;;;;7.93;2.30;;;;;;;;;;5062513;28;20075;-52
2023/09/26 10:45:11;;;;;;;9.82;2.95;;;;;;;;;;5047083;28;20033;-55
2023/09/26 10:47:40;;;;;;;6.78;3.08;;;;;;;;;;5063723;28;20040;-49
2023/09/26 10:50:12;;;;;;;8.77;3.13;;;;;;;;;;5063600;28;20037;-50
2023/09/26 10:52:46;;;;;;;;;;;;;;;;;;5062549;28;20247;-44
2023/09/26 10:55:20;;;;;;;6.95;3.03;;;;;;;;;;5063759;28;20373;-52
2023/09/26 10:57:48;;;;;;;7.80;3.13;;;;;;;;;;5063322;28;20036;-49
2023/09/26 11:00:15;;;;;;;5.88;2.83;;;;;;;;;;5062288;28;20330;-49
2023/09/26 11:02:42;;;;;;;7.78;3.15;;;;;;;;;;5063428;28;20037;-50
2023/09/26 11:05:13;;;;;;;8.63;2.75;;;;;;;;;;5063289;28;20244;-52
2023/09/26 11:07:41;;;;;;;9.07;2.75;;;;;;;;;;5063534;28;20024;-50
2023/09/26 11:10:17;;;;;;;4.13;2.35;;;;;;;;;;5067431;28;20316;-51
2023/09/26 11:12:44;;;;;;;6.05;2.30;;;;;;;;;;5067406;28;20305;-55
2023/09/26 11:15:11;;;;;;;5.28;2.30;;;;;;;;;;5067266;28;20040;-52
2023/09/26 11:17:38;;;;;;;3.67;2.03;;;;;;;;;;5065528;28;20332;-48
2023/09/26 11:20:09;;;;;;;5.80;1.80;;;;;;;;;;5065322;28;20074;-53
2023/09/26 11:22:50;;;;;;;6.72;2.25;;;;;;;;;;5065355;28;20076;-52
2023/09/26 11:25:17;;;;;;;7.07;2.35;;;;;;;;;;5064954;28;20037;-50
2023/09/26 11:27:48;;;;;;;5.72;1.75;;;;;;;;;;5065222;28;20071;-49
2023/09/26 11:30:19;;;;;;;3.95;1.60;;;;;;;;;;5065331;28;20020;-47
2023/09/26 11:32:48;;;;;;;6.50;2.40;;;;;;;;;;5066849;28;20025;-47
2023/09/26 11:35:16;;;;;;;3.67;2.00;;;;;;;;;;5066883;28;20037;-46
2023/09/26 11:37:42;;;;;;;6.47;2.05;;;;;;;;;;5066841;28;20013;-47
2023/09/26 11:40:12;;;;;;;8.18;2.22;;;;;;;;;;5066774;28;20412;-52
2023/09/26 11:42:43;;;;;;;6.22;2.20;;;;;;;;;;5066789;28;20037;-52
2023/09/26 11:45:19;;;;;;;6.22;1.80;;;;;;;;;;5066457;28;20025;-53
2023/09/26 11:47:46;;;;;;;4.85;1.83;;;;;;;;;;5066565;28;20098;-50
2023/09/26 11:50:12;;;;;;;5.53;1.98;;;;;;;;;;5066656;28;20082;-47
2023/09/26 11:52:40;;;;;;;3.90;1.75;;;;;;;;;;5066697;28;20025;-52
2023/09/26 11:55:07;;;;;;;4.82;1.70;;;;;;;;;;5066312;28;20021;-53
2023/09/26 11:57:35;;;;;;;4.30;1.75;;;;;;;;;;5066288;28;20021;-51
2023/09/26 12:00:06;;;;;;;6.18;2.22;;;;;;;;;;5065969;28;20033;-47
2023/09/26 12:02:33;;;;;;;3.67;2.00;;;;;;;;;;5066218;28;20025;-51
2023/09/26 12:05:01;;;;;;;6.57;1.85;;;;;;;;;;5066237;28;20078;-51
2023/09/26 12:07:27;;;;;;;4.95;2.00;;;;;;;;;;5066348;28;20029;-49
2023/09/26 12:09:54;;;;;;;3.42;1.65;;;;;;;;;;5066107;28;20297;-53
2023/09/26 12:12:21;;;;;;;8.45;2.08;;;;;;;;;;5066139;28;20033;-47
2023/09/26 12:14:48;;;;;;;4.72;1.90;;;;;;;;;;5065929;28;20033;-54
2023/09/26 12:17:16;;;;;;;4.18;1.85;;;;;;;;;;5065939;28;20325;-44
2023/09/26 12:19:43;;;;;;;3.90;1.83;;;;;;;;;;5065678;28;20305;-48
2023/09/26 12:22:09;;;;;;;2.75;1.67;;;;;;;;;;5065872;28;20044;-51
2023/09/26 12:24:36;;;;;;;3.65;1.50;;;;;;;;;;5066109;28;20194;-47
2023/09/26 12:27:03;;;;;;;3.78;1.75;;;;;;;;;;5065490;28;20106;-48
2023/09/26 12:29:30;;;;;;;2.95;1.92;;;;;;;;;;5065579;28;20025;-52
2023/09/26 12:31:58;;;;;;;4.43;1.80;;;;;;;;;;5065077;28;20432;-45
2023/09/26 12:34:26;;;;;;;4.00;1.90;;;;;;;;;;5063965;28;20020;-42
2023/09/26 12:36:52;;;;;;;4.65;2.00;;;;;;;;;;5064321;28;20033;-41
2023/09/26 12:39:19;;;;;;;3.85;1.85;;;;;;;;;;5063961;28;20460;-47
2023/09/26 12:41:47;;;;;;;3.08;1.95;;;;;;;;;;5064266;28;20037;-46
2023/09/26 12:44:14;;;;;;;3.80;1.80;;;;;;;;;;5063916;28;20031;-42
2023/09/26 12:46:40;;;;;;;3.88;1.58;;;;;;;;;;5064029;28;20033;-41
2023/09/26 12:49:08;;;;;;;4.97;2.05;;;;;;;;;;5063764;28;20321;-49
2023/09/26 12:51:35;;;;;;;3.88;1.85;;;;;;;;;;5063471;28;20386;-44
2023/09/26 12:54:02;;;;;;;8.15;2.10;;;;;;;;;;5063635;28;20013;-47
2023/09/26 12:56:29;;;;;;;8.07;2.17;;;;;;;;;;5065500;28;20025;-41
2023/09/26 12:58:56;;;;;;;7.65;1.88;;;;;;;;;;5065085;28;20056;-48
2023/09/26 13:01:22;;;;;;;3.25;2.20;;;;;;;;;;5065606;28;20023;-42
2023/09/26 13:03:49;;;;;;;3.22;1.95;;;;;;;;;;5065132;28;20071;-41
2023/09/26 13:06:16;;;;;;;5.88;1.90;;;;;;;;;;5065214;28;20134;-41
2023/09/26 13:08:43;;;;;;;3.25;1.98;;;;;;;;;;5065017;28;20041;-51
2023/09/26 13:11:10;;;;;;;2.80;1.92;;;;;;;;;;5065394;28;20058;-44
2023/09/26 13:13:36;;;;;;;2.75;1.75;;;;;;;;;;5064784;28;20267;-41
2023/09/26 13:16:04;;;;;;;4.53;1.92;;;;;;;;;;5065274;28;20028;-42
2023/09/26 13:18:30;;;;;;;2.63;1.80;;;;;;;;;;5064789;28;20028;-46
2023/09/26 13:20:57;;;;;;;3.78;2.13;;;;;;;;;;5064933;28;20029;-42
2023/09/26 13:23:26;;;;;;;3.63;1.88;;;;;;;;;;5064777;28;20204;-48
2023/09/26 13:25:55;;;;;;;3.40;1.83;;;;;;;;;;5064613;28;20037;-42
2023/09/26 13:28:22;;;;;;;3.13;2.00;;;;;;;;;;5064589;28;20037;-44
2023/09/26 13:30:49;;;;;;;7.10;2.10;;;;;;;;;;5064204;28;20025;-47
2023/09/26 13:33:15;;;;;;;2.95;1.90;;;;;;;;;;5064637;28;20033;-44
2023/09/26 13:35:42;;;;;;;4.63;1.80;;;;;;;;;;5064646;28;20075;-46
2023/09/26 13:38:10;;;;;;;5.72;2.05;;;;;;;;;;5069296;28;20084;-39
2023/09/26 13:40:37;;;;;;;4.97;1.85;;;;;;;;;;5071718;28;20305;-41
2023/09/26 13:43:03;;;;;;;4.93;1.63;;;;;;;;;;5081748;28;20036;-48
2023/09/26 13:45:30;;;;;;;4.78;2.05;;;;;;;;;;5084583;28;20028;-46
2023/09/26 13:47:57;;;;;;;2.22;1.60;;;;;;;;;;5084274;28;20024;-40
2023/09/26 13:50:23;;;;;;;5.47;1.77;;;;;;;;;;5084355;28;20032;-39
2023/09/26 13:52:50;;;;;;;3.45;1.52;;;;;;;;;;5084112;28;20047;-41
2023/09/26 13:55:17;;;;;;;3.15;1.73;;;;;;;;;;5084262;28;20035;-40
2023/09/26 13:57:43;;;;;;;2.85;1.77;;;;;;;;;;5084085;28;20032;-40
2023/09/26 14:00:10;;;;;;;2.08;1.60;;;;;;;;;;5084228;28;20055;-41
2023/09/26 14:02:37;;;;;;;2.40;1.60;;;;;;;;;;5084083;28;20039;-41
2023/09/26 14:05:04;;;;;;;5.15;1.60;;;;;;;;;;5084153;28;20155;-39
2023/09/26 14:07:34;;;;;;;2.70;1.70;;;;;;;;;;5084041;28;20092;-54
2023/09/26 14:10:00;;;;;;;4.05;1.85;;;;;;;;;;5084268;28;20081;-46
2023/09/26 14:12:27;;;;;;;3.45;2.20;;;;;;;;;;5083830;28;20087;-41
2023/09/26 14:14:54;;;;;;;2.65;1.95;;;;;;;;;;5083458;28;20305;-42
2023/09/26 14:17:23;;;;;;;2.95;2.00;;;;;;;;;;5082295;28;20028;-43
2023/09/26 14:19:50;;;;;;;2.85;2.00;;;;;;;;;;5076800;28;20040;-42
2023/09/26 14:22:16;;;;;;;3.42;1.95;;;;;;;;;;5080520;28;20032;-42
2023/09/26 14:24:43;;;;;;;4.25;2.15;;;;;;;;;;5071516;28;20024;-46
2023/09/26 14:27:10;;;;;;;2.47;1.95;;;;;;;;;;5068688;28;20206;-41
2023/09/26 14:29:38;;;;;;;4.80;2.53;;;;;;;;;;5084131;28;20031;-51
2023/09/26 14:32:05;;;;;;;2.30;2.10;;;;;;;;;;5072481;28;20075;-45
2023/09/26 14:34:31;;;;;;;3.63;1.90;;;;;;;;;;5063497;28;20092;-45
2023/09/26 14:36:59;;;;;;;4.43;2.45;;;;;;;;;;5063050;28;20195;-43
2023/09/26 14:39:26;;;;;;;3.42;2.00;;;;;;;;;;5063605;28;20029;-43
2023/09/26 14:41:53;;;;;;;2.17;1.98;;;;;;;;;;5063703;28;20033;-40
2023/09/26 14:44:19;;;;;;;4.22;2.25;;;;;;;;;;5066022;28;20017;-41
2023/09/26 14:46:46;;;;;;;5.22;2.30;;;;;;;;;;5066319;28;20032;-41
2023/09/26 14:49:13;;;;;;;8.20;2.20;;;;;;;;;;5065976;28;20254;-43
2023/09/26 14:51:41;;;;;;;5.68;2.35;;;;;;;;;;5065781;28;20088;-41
2023/09/26 14:54:09;;;;;;;4.68;2.50;;;;;;;;;;5065744;28;20045;-40
2023/09/26 14:56:35;;;;;;;9.90;2.55;;;;;;;;;;5066199;28;20106;-41
2023/09/26 14:59:02;;;;;;;7.90;3.47;;;;;;;;;;5066593;28;20017;-41
2023/09/26 15:01:29;;;;;;;5.70;2.60;;;;;;;;;;5067381;28;20037;-41
2023/09/26 15:03:55;;;;;;;7.38;2.75;;;;;;;;;;5067518;28;20078;-44